Time;durP1;ratioP1;P1;durP2;ratioP2;P2;SDS_P1;SDS_P2;PMS_P1;PMS_P2;Temp;Humidity;BMP_temperature;BMP_pressure;BME280_temperature;BME280_humidity;BME280_pressure;Samples;Min_cycle;Max_cycle;Signal;HPM_P1;HPM_P2
2022/05/30 00:00:28;;;;;;;18.17;8.10;;;;;;;10.77;94.93;99436.69;4236157;28;20234;-60
2022/05/30 00:02:54;;;;;;;16.50;7.90;;;;;;;10.74;95.46;99423.69;4234185;28;20239;-59
2022/05/30 00:05:23;;;;;;;18.63;8.50;;;;;;;10.66;95.98;99421.91;4232079;28;21212;-63
2022/05/30 00:07:50;;;;;;;13.07;7.80;;;;;;;10.75;95.32;99412.06;4241084;28;20235;-60
2022/05/30 00:10:17;;;;;;;14.97;7.57;;;;;;;10.67;95.90;99406.75;4226098;28;20235;-61
2022/05/30 00:12:43;;;;;;;16.63;7.20;;;;;;;10.72;95.89;99412.41;4234741;28;21786;-58
2022/05/30 00:15:13;;;;;;;17.37;8.43;;;;;;;10.77;95.45;99412.75;4239013;28;23716;-62
2022/05/30 00:17:39;;;;;;;15.23;7.30;;;;;;;10.87;94.95;99410.69;4235789;28;20290;-62
2022/05/30 00:20:07;;;;;;;19.83;8.13;;;;;;;10.82;94.89;99405.06;4211401;28;20313;-58
2022/05/30 00:22:34;;;;;;;16.90;8.10;;;;;;;10.82;94.87;99405.06;4238483;28;20356;-61
2022/05/30 00:25:00;;;;;;;16.80;8.30;;;;;;;10.71;95.67;99403.59;4242782;28;20230;-61
2022/05/30 00:27:27;;;;;;;16.67;8.07;;;;;;;10.72;96.26;99410.59;4234527;28;21432;-60
2022/05/30 00:29:53;;;;;;;17.13;8.17;;;;;;;10.85;94.56;99409.22;4237502;28;20314;-59
2022/05/30 00:32:21;;;;;;;16.37;8.30;;;;;;;10.71;95.20;99397.44;4243013;28;20339;-61
2022/05/30 00:34:48;;;;;;;14.63;8.27;;;;;;;10.64;96.34;99396.47;4235168;28;20475;-61
2022/05/30 00:37:14;;;;;;;18.90;8.87;;;;;;;10.69;95.70;99404.75;4234071;28;20280;-59
2022/05/30 00:39:41;;;;;;;18.30;8.70;;;;;;;10.57;97.29;99409.63;4235348;28;20269;-61
2022/05/30 00:42:13;;;;;;;16.90;8.10;;;;;;;10.63;97.38;99400.13;4232126;28;20226;-61
2022/05/30 00:44:42;;;;;;;20.87;8.03;;;;;;;10.59;96.76;99401.47;4239377;28;20221;-59
2022/05/30 00:47:09;;;;;;;16.77;8.87;;;;;;;10.54;97.85;99397.50;4236706;28;20318;-60
2022/05/30 00:49:37;;;;;;;15.87;8.90;;;;;;;10.49;99.16;99391.03;4234142;28;25796;-62
2022/05/30 00:52:07;;;;;;;19.20;9.63;;;;;;;10.49;99.58;99386.53;4233824;28;20317;-62
2022/05/30 00:54:42;;;;;;;13.30;7.70;;;;;;;10.54;99.04;99381.53;4230472;28;21616;-59
2022/05/30 00:57:21;;;;;;;18.47;9.03;;;;;;;10.52;98.18;99370.22;4225247;28;22043;-60
2022/05/30 00:59:51;;;;;;;18.90;8.90;;;;;;;10.45;99.90;99368.44;4218076;28;20253;-59
2022/05/30 01:02:19;;;;;;;18.17;8.83;;;;;;;10.53;98.35;99369.22;4228327;28;20234;-61
2022/05/30 01:07:32;;;;;;;15.57;8.00;;;;;;;10.41;99.51;99370.59;4254477;28;21771;-59
2022/05/30 01:09:59;;;;;;;18.80;8.50;;;;;;;10.38;100.00;99359.47;4231805;28;20242;-59
2022/05/30 01:12:43;;;;;;;16.70;8.07;;;;;;;10.40;100.00;99363.63;4223594;28;20288;-60
2022/05/30 01:15:14;;;;;;;19.03;8.83;;;;;;;10.36;100.00;99356.97;4237219;28;20288;-60
2022/05/30 01:18:00;;;;;;;15.80;8.40;;;;;;;10.49;100.00;99357.28;4232412;28;20241;-60
2022/05/30 01:20:36;;;;;;;15.63;9.00;;;;;;;10.54;99.49;99352.28;4234031;28;20386;-63
2022/05/30 01:23:21;;;;;;;17.90;8.77;;;;;;;10.60;99.32;99355.25;4233436;28;20239;-59
2022/05/30 01:26:13;;;;;;;13.50;8.33;;;;;;;10.64;99.00;99356.56;4246271;28;21439;-59
2022/05/30 01:28:45;;;;;;;17.20;8.23;;;;;;;10.70;98.56;99355.84;4245165;28;20293;-61
2022/05/30 01:31:14;;;;;;;14.00;8.07;;;;;;;10.65;99.60;99350.22;4253904;28;21253;-60
2022/05/30 01:33:41;;;;;;;20.87;8.33;;;;;;;10.74;98.61;99349.19;4273550;28;20454;-60
2022/05/30 01:36:08;;;;;;;17.03;8.50;;;;;;;10.60;98.54;99336.63;4227531;28;21805;-58
2022/05/30 01:38:35;;;;;;;17.40;8.60;;;;;;;10.51;98.77;99335.81;4234249;28;20253;-60
2022/05/30 01:41:02;;;;;;;18.63;8.80;;;;;;;10.44;98.56;99346.34;4238259;28;20239;-61
2022/05/30 01:43:29;;;;;;;16.70;9.03;;;;;;;10.53;98.62;99342.63;4241596;28;20347;-61
2022/05/30 01:45:56;;;;;;;18.83;8.50;;;;;;;10.47;99.17;99332.69;4222469;28;20222;-62
2022/05/30 01:48:23;;;;;;;15.37;7.70;;;;;;;10.51;98.72;99341.97;4237149;28;20237;-59
2022/05/30 01:50:50;;;;;;;15.83;8.27;;;;;;;10.50;99.27;99331.50;4246612;28;20239;-61
2022/05/30 01:53:16;;;;;;;17.53;9.57;;;;;;;10.50;100.00;99342.16;4242647;28;21442;-59
2022/05/30 01:55:42;;;;;;;18.17;8.97;;;;;;;10.51;100.00;99339.31;4263392;28;20234;-60
2022/05/30 01:58:09;;;;;;;18.57;8.30;;;;;;;10.54;100.00;99338.16;4248432;28;20235;-63
2022/05/30 02:00:36;;;;;;;18.93;10.07;;;;;;;10.52;100.00;99334.81;4243279;28;20254;-59
2022/05/30 02:03:04;;;;;;;17.60;9.60;;;;;;;10.50;100.00;99337.66;4252412;28;20265;-60
2022/05/30 02:05:33;;;;;;;16.03;9.63;;;;;;;10.52;100.00;99335.66;4243693;28;20249;-59
2022/05/30 02:08:01;;;;;;;21.73;9.57;;;;;;;10.53;100.00;99331.16;4245443;28;20444;-62
2022/05/30 02:10:29;;;;;;;21.93;9.10;;;;;;;10.45;100.00;99336.50;4252304;28;20474;-60
2022/05/30 02:12:56;;;;;;;24.17;9.50;;;;;;;10.37;100.00;99332.03;4259970;28;20237;-60
2022/05/30 02:15:23;;;;;;;20.33;9.60;;;;;;;10.31;100.00;99330.06;4244119;28;20243;-62
2022/05/30 02:17:50;;;;;;;15.90;9.03;;;;;;;10.32;100.00;99331.72;4241695;28;20231;-59
2022/05/30 02:20:18;;;;;;;17.83;9.77;;;;;;;10.41;100.00;99337.84;4235451;28;20238;-59
2022/05/30 02:22:45;;;;;;;21.07;9.37;;;;;;;10.61;100.00;99359.59;4245419;28;20246;-59
2022/05/30 02:25:12;;;;;;;19.57;9.00;;;;;;;10.66;100.00;99365.22;4252664;28;23663;-59
2022/05/30 02:27:41;;;;;;;18.23;8.70;;;;;;;10.55;100.00;99359.25;4243055;28;20390;-61
2022/05/30 02:30:09;;;;;;;18.30;8.90;;;;;;;10.61;100.00;99359.59;4258685;28;26874;-59
2022/05/30 02:32:36;;;;;;;25.40;9.53;;;;;;;10.44;100.00;99353.47;4248138;28;20234;-61
2022/05/30 02:37:59;;;;;;;11.47;5.87;;;;;;;10.15;100.00;99358.31;4202703;28;20228;-63
2022/05/30 02:40:25;;;;;;;11.33;5.30;;;;;;;10.28;97.82;99362.31;4236467;28;25266;-59
2022/05/30 02:42:52;;;;;;;10.77;5.93;;;;;;;10.26;97.60;99367.78;4241146;28;20344;-61
2022/05/30 02:45:18;;;;;;;9.77;5.43;;;;;;;10.05;98.27;99370.97;4235952;28;21032;-60
2022/05/30 02:47:46;;;;;;;18.43;6.27;;;;;;;9.90;100.00;99377.94;4236735;28;20361;-59
2022/05/30 02:50:13;;;;;;;12.73;6.40;;;;;;;9.87;100.00;99375.63;4239528;28;20233;-60
2022/05/30 02:52:39;;;;;;;13.07;6.53;;;;;;;9.96;100.00;99364.00;4238057;28;20235;-61
2022/05/30 02:55:06;;;;;;;16.80;6.37;;;;;;;10.07;100.00;99371.63;4243113;28;20256;-60
2022/05/30 02:57:33;;;;;;;13.87;5.60;;;;;;;10.04;100.00;99369.28;4255264;28;20831;-60
2022/05/30 03:00:00;;;;;;;11.60;6.33;;;;;;;9.85;100.00;99365.16;4242928;28;20944;-61
2022/05/30 03:02:26;;;;;;;16.00;7.43;;;;;;;9.69;100.00;99363.34;4242288;28;20243;-61
2022/05/30 03:04:53;;;;;;;9.87;5.67;;;;;;;9.63;100.00;99355.19;4234839;28;20254;-60
2022/05/30 03:07:19;;;;;;;11.57;6.33;;;;;;;9.54;100.00;99357.00;4231448;28;20301;-60
2022/05/30 03:09:46;;;;;;;12.33;5.60;;;;;;;9.48;100.00;99357.66;4247697;28;21650;-62
2022/05/30 03:12:12;;;;;;;12.07;5.67;;;;;;;9.43;100.00;99358.16;4239962;28;21563;-61
2022/05/30 03:14:39;;;;;;;10.67;5.80;;;;;;;9.44;100.00;99357.19;4231559;28;20284;-59
2022/05/30 03:17:05;;;;;;;9.30;5.87;;;;;;;9.59;100.00;99364.50;4242553;28;20343;-58
2022/05/30 03:19:32;;;;;;;10.77;6.30;;;;;;;9.59;100.00;99367.16;4244984;28;20236;-59
2022/05/30 03:21:59;;;;;;;12.93;6.47;;;;;;;9.50;100.00;99361.00;4235951;28;25222;-60
2022/05/30 03:24:25;;;;;;;13.03;6.67;;;;;;;9.48;100.00;99376.25;4233924;28;20538;-65
2022/05/30 03:26:52;;;;;;;11.50;6.70;;;;;;;9.48;100.00;99368.28;4249154;28;21736;-61
2022/05/30 03:29:18;;;;;;;14.13;7.03;;;;;;;9.54;100.00;99367.63;4238361;28;26722;-60
2022/05/30 03:31:45;;;;;;;14.47;6.90;;;;;;;9.58;100.00;99363.66;4233064;28;20228;-60
2022/05/30 03:34:11;;;;;;;12.80;6.87;;;;;;;9.66;100.00;99363.66;4233410;28;25301;-63
2022/05/30 03:36:38;;;;;;;14.07;6.20;;;;;;;9.72;100.00;99364.84;4246024;28;20686;-61
2022/05/30 03:39:04;;;;;;;12.97;6.67;;;;;;;9.61;100.00;99357.19;4238814;28;22567;-59
2022/05/30 03:41:34;;;;;;;14.03;6.27;;;;;;;9.48;100.00;99357.66;4243142;28;21795;-61
2022/05/30 03:44:01;;;;;;;14.60;7.00;;;;;;;9.47;100.00;99361.31;4235344;28;20328;-61
2022/05/30 03:46:28;;;;;;;12.27;6.47;;;;;;;9.57;100.00;99366.47;4246804;28;20231;-60
2022/05/30 03:48:55;;;;;;;10.97;5.73;;;;;;;9.55;100.00;99358.66;4256327;28;20238;-61
2022/05/30 03:51:22;;;;;;;9.20;6.03;;;;;;;9.59;100.00;99362.66;4232010;28;20230;-60
2022/05/30 03:53:50;;;;;;;12.00;6.63;;;;;;;9.65;100.00;99354.03;4249702;28;20226;-61
2022/05/30 03:56:20;;;;;;;12.27;6.73;;;;;;;9.62;100.00;99365.00;4239922;28;20664;-60
2022/05/30 03:58:47;;;;;;;10.87;7.30;;;;;;;9.58;100.00;99361.00;4254457;28;20286;-60
2022/05/30 04:01:14;;;;;;;11.63;6.30;;;;;;;9.60;100.00;99364.34;4239685;28;20231;-60
2022/05/30 04:03:41;;;;;;;11.67;6.10;;;;;;;9.62;100.00;99359.69;4243206;28;20327;-60
2022/05/30 04:06:08;;;;;;;11.47;6.90;;;;;;;9.61;100.00;99367.81;4243714;28;20254;-62
2022/05/30 04:08:35;;;;;;;14.53;7.07;;;;;;;9.67;100.00;99360.03;4251520;28;20426;-61
2022/05/30 04:11:01;;;;;;;14.67;6.50;;;;;;;9.70;100.00;99361.50;4237213;28;20227;-60
2022/05/30 04:13:28;;;;;;;12.17;7.10;;;;;;;9.68;100.00;99353.69;4239240;28;20234;-59
2022/05/30 04:15:55;;;;;;;10.93;6.73;;;;;;;9.75;100.00;99358.34;4239102;28;22557;-60
2022/05/30 04:18:21;;;;;;;8.73;5.90;;;;;;;9.75;100.00;99353.88;4246689;28;20219;-62
2022/05/30 04:20:48;;;;;;;11.67;6.93;;;;;;;9.78;100.00;99353.53;4231880;28;20313;-63
2022/05/30 04:23:15;;;;;;;10.50;6.33;;;;;;;9.87;100.00;99351.72;4236760;28;20386;-60
2022/05/30 04:25:41;;;;;;;9.60;6.83;;;;;;;9.92;100.00;99347.53;4246027;28;21238;-61
2022/05/30 04:28:08;;;;;;;11.57;6.87;;;;;;;9.88;100.00;99353.34;4260222;28;20287;-61
2022/05/30 04:30:36;;;;;;;8.47;6.23;;;;;;;9.94;100.00;99342.88;4255971;28;20914;-60
2022/05/30 04:33:03;;;;;;;10.80;6.10;;;;;;;9.98;100.00;99343.41;4234277;28;20292;-60
2022/05/30 04:35:29;;;;;;;14.67;7.93;;;;;;;9.86;100.00;99347.41;4256460;28;22788;-60
2022/05/30 04:37:56;;;;;;;14.03;7.70;;;;;;;9.95;100.00;99338.44;4232911;28;21201;-60
2022/05/30 04:40:23;;;;;;;13.27;7.40;;;;;;;9.96;100.00;99324.13;4285722;28;20301;-64
2022/05/30 04:42:49;;;;;;;13.37;5.80;;;;;;;10.18;100.00;99319.09;4252205;28;20227;-60
2022/05/30 04:45:16;;;;;;;7.90;5.87;;;;;;;10.10;100.00;99323.44;4235339;28;22924;-62
2022/05/30 04:47:42;;;;;;;11.53;6.63;;;;;;;9.97;100.00;99325.78;4248406;28;20353;-61
2022/05/30 04:50:16;;;;;;;9.40;7.10;;;;;;;9.68;100.00;99331.63;4275029;28;20298;-60
2022/05/30 04:52:43;;;;;;;9.03;6.67;;;;;;;9.79;100.00;99323.31;4246647;28;25403;-60
2022/05/30 04:55:12;;;;;;;14.13;7.27;;;;;;;9.73;100.00;99319.50;4247975;28;20731;-60
2022/05/30 04:57:49;;;;;;;11.10;7.23;;;;;;;9.78;100.00;99323.47;4242684;28;20708;-61
2022/05/30 05:00:20;;;;;;;10.63;7.50;;;;;;;9.64;100.00;99319.66;4243734;28;21538;-62
2022/05/30 05:02:46;;;;;;;26.33;15.90;;;;;;;9.67;100.00;99320.19;4223932;28;20251;-62
2022/05/30 05:05:13;;;;;;;9.70;7.00;;;;;;;9.78;100.00;99316.34;4225253;28;21746;-59
2022/05/30 05:07:45;;;;;;;13.07;7.77;;;;;;;9.69;100.00;99323.50;4244428;28;21803;-62
2022/05/30 05:10:44;;;;;;;10.73;7.27;;;;;;;9.69;100.00;99312.88;4237688;28;21267;-61
2022/05/30 05:13:11;;;;;;;12.20;7.57;;;;;;;9.66;100.00;99323.81;4242496;28;26219;-62
2022/05/30 05:15:37;;;;;;;12.90;7.10;;;;;;;9.60;100.00;99319.19;4243910;28;20235;-62
2022/05/30 05:18:04;;;;;;;14.00;8.20;;;;;;;9.54;100.00;99329.63;4263562;28;20353;-61
2022/05/30 05:20:38;;;;;;;13.40;8.17;;;;;;;9.47;100.00;99334.78;4234977;28;20761;-61
2022/05/30 05:23:05;;;;;;;13.50;8.00;;;;;;;9.43;100.00;99339.56;4241092;28;20234;-60
2022/05/30 05:25:35;;;;;;;17.83;9.00;;;;;;;9.46;100.00;99338.44;4254554;28;21744;-58
2022/05/30 05:28:02;;;;;;;13.80;8.57;;;;;;;9.54;100.00;99333.13;4266800;28;20304;-60
2022/05/30 05:30:29;;;;;;;13.87;8.77;;;;;;;9.48;100.00;99336.41;4242702;28;20230;-60
2022/05/30 05:32:55;;;;;;;13.83;8.67;;;;;;;9.44;100.00;99335.94;4247537;28;20249;-61
2022/05/30 05:35:22;;;;;;;13.77;9.00;;;;;;;9.40;100.00;99339.09;4254090;28;20226;-60
2022/05/30 05:37:48;;;;;;;12.70;9.80;;;;;;;9.42;100.00;99342.41;4236057;28;20290;-62
2022/05/30 05:40:15;;;;;;;17.30;10.00;;;;;;;9.33;100.00;99338.91;4254923;28;21349;-61
2022/05/30 05:42:42;;;;;;;18.03;10.73;;;;;;;9.36;100.00;99343.06;4243416;28;26706;-62
2022/05/30 05:45:09;;;;;;;19.47;10.67;;;;;;;9.31;100.00;99335.56;4235111;28;20892;-61
2022/05/30 05:47:35;;;;;;;17.97;11.37;;;;;;;9.44;100.00;99332.47;4253907;28;20230;-61
2022/05/30 05:50:03;;;;;;;19.73;11.43;;;;;;;9.50;100.00;99335.28;4241709;28;20670;-63
2022/05/30 05:52:30;;;;;;;21.93;12.10;;;;;;;9.59;100.00;99328.13;4240287;28;22981;-60
2022/05/30 05:54:58;;;;;;;21.57;12.43;;;;;;;9.53;100.00;99326.16;4245966;28;21013;-62
2022/05/30 05:57:28;;;;;;;19.70;12.30;;;;;;;9.52;100.00;99324.47;4235562;28;20504;-61
2022/05/30 05:59:54;;;;;;;19.27;13.53;;;;;;;9.52;100.00;99321.81;4258251;28;21446;-61
2022/05/30 06:02:22;;;;;;;23.07;14.30;;;;;;;9.59;100.00;99316.69;4219481;28;20266;-61
2022/05/30 06:04:52;;;;;;;27.03;14.43;;;;;;;9.66;100.00;99321.16;4245664;28;21212;-62
2022/05/30 06:07:19;;;;;;;22.97;14.30;;;;;;;9.61;100.00;99315.50;4240067;28;21027;-62
2022/05/30 06:09:45;;;;;;;23.97;15.03;;;;;;;9.64;100.00;99325.81;4239397;28;20302;-63
2022/05/30 06:12:12;;;;;;;23.63;14.23;;;;;;;9.59;100.00;99324.66;4253254;28;20235;-62
2022/05/30 06:14:39;;;;;;;21.00;14.47;;;;;;;9.65;100.00;99316.84;4239785;28;21310;-61
2022/05/30 06:17:06;;;;;;;25.63;14.33;;;;;;;9.67;100.00;99322.84;4236611;28;20510;-67
2022/05/30 06:19:33;;;;;;;23.00;14.77;;;;;;;9.76;100.00;99317.50;4236678;28;20230;-63
2022/05/30 06:22:00;;;;;;;22.27;14.77;;;;;;;9.84;100.00;99315.66;4237754;28;25828;-62
2022/05/30 06:24:26;;;;;;;23.63;14.77;;;;;;;9.85;100.00;99319.16;4239336;28;20341;-61
2022/05/30 06:26:53;;;;;;;24.50;15.33;;;;;;;9.76;100.00;99320.16;4230710;28;20230;-63
2022/05/30 06:29:20;;;;;;;23.37;15.33;;;;;;;9.82;100.00;99311.53;4223781;28;20284;-66
2022/05/30 06:31:46;;;;;;;22.57;14.90;;;;;;;9.93;100.00;99312.00;4221284;28;20296;-62
2022/05/30 06:34:13;;;;;;;27.77;16.97;;;;;;;10.01;100.00;99311.16;4251887;28;20245;-60
2022/05/30 06:36:41;;;;;;;25.80;14.80;;;;;;;10.23;100.00;99309.63;4237875;28;20281;-64
2022/05/30 06:39:08;;;;;;;21.53;15.07;;;;;;;10.32;100.00;99310.44;4241794;28;20437;-62
2022/05/30 06:41:34;;;;;;;26.53;15.80;;;;;;;10.45;100.00;99316.06;4243040;28;23949;-63
2022/05/30 06:44:04;;;;;;;19.93;13.97;;;;;;;10.45;100.00;99313.41;4252139;28;20650;-61
2022/05/30 06:46:33;;;;;;;18.47;12.83;;;;;;;10.39;100.00;99311.41;4242538;28;20257;-60
2022/05/30 06:49:01;;;;;;;17.07;12.30;;;;;;;10.49;100.00;99313.91;4233868;28;22227;-65
2022/05/30 06:51:29;;;;;;;18.23;13.37;;;;;;;10.49;100.00;99317.38;4252386;28;21840;-60
2022/05/30 06:53:55;;;;;;;19.67;12.07;;;;;;;10.55;100.00;99315.84;4242693;28;21627;-59
2022/05/30 06:56:27;;;;;;;22.67;12.93;;;;;;;10.47;100.00;99308.75;4251993;28;20321;-64
2022/05/30 06:58:55;;;;;;;16.60;12.10;;;;;;;10.56;100.00;99314.88;4228449;28;20320;-61
2022/05/30 07:01:26;;;;;;;19.23;12.40;;;;;;;10.62;100.00;99314.16;4256203;28;23020;-62
2022/05/30 07:03:54;;;;;;;16.67;11.73;;;;;;;10.54;100.00;99314.22;4241207;28;20234;-61
2022/05/30 07:06:23;;;;;;;17.10;11.77;;;;;;;10.66;100.00;99315.47;4269409;28;20239;-60
2022/05/30 07:08:50;;;;;;;18.87;11.77;;;;;;;10.65;100.00;99313.84;4244975;28;20238;-59
2022/05/30 07:11:18;;;;;;;18.40;11.43;;;;;;;10.79;100.00;99317.56;4236498;28;21193;-63
2022/05/30 07:13:46;;;;;;;14.97;10.63;;;;;;;10.92;100.00;99312.53;4263995;28;20307;-61
2022/05/30 07:16:13;;;;;;;15.20;9.83;;;;;;;10.94;100.00;99310.50;4250961;28;20231;-60
2022/05/30 07:18:44;;;;;;;13.37;9.10;;;;;;;10.89;100.00;99310.22;4248794;28;20860;-61
2022/05/30 07:21:13;;;;;;;10.30;7.87;;;;;;;10.82;100.00;99319.91;4244832;28;20254;-61
2022/05/30 07:23:40;;;;;;;13.07;8.60;;;;;;;10.67;100.00;99317.13;4243506;28;21209;-61
2022/05/30 07:26:10;;;;;;;14.13;8.80;;;;;;;10.53;100.00;99313.34;4234563;28;21277;-63
2022/05/30 07:28:37;;;;;;;14.80;9.43;;;;;;;10.48;100.00;99318.38;4247925;28;20243;-62
2022/05/30 07:31:06;;;;;;;13.73;10.10;;;;;;;10.52;100.00;99317.03;4245858;28;20241;-62
2022/05/30 07:33:34;;;;;;;16.00;10.13;;;;;;;10.61;100.00;99314.34;4252166;28;20285;-60
2022/05/30 07:36:05;;;;;;;16.93;11.43;;;;;;;10.66;100.00;99314.66;4258059;28;20231;-60
2022/05/30 07:38:32;;;;;;;15.00;9.93;;;;;;;10.66;100.00;99312.81;4261890;28;22961;-59
2022/05/30 07:41:00;;;;;;;18.97;9.97;;;;;;;10.73;100.00;99320.94;4240263;28;20317;-64
2022/05/30 07:43:26;;;;;;;20.83;9.17;;;;;;;10.81;100.00;99323.56;4246957;28;20230;-65
2022/05/30 07:45:53;;;;;;;9.67;7.07;;;;;;;10.91;100.00;99318.00;4251380;28;20413;-63
2022/05/30 07:48:20;;;;;;;13.13;7.37;;;;;;;10.93;100.00;99319.53;4235371;28;20317;-61
2022/05/30 07:50:47;;;;;;;15.27;7.90;;;;;;;10.86;100.00;99318.53;4276202;28;20810;-62
2022/05/30 07:53:13;;;;;;;9.83;6.10;;;;;;;10.84;100.00;99314.38;4246356;28;20812;-62
2022/05/30 07:55:40;;;;;;;10.07;5.37;;;;;;;10.82;100.00;99322.56;4261630;28;21699;-67
2022/05/30 07:58:07;;;;;;;8.70;5.40;;;;;;;10.73;100.00;99315.63;4243588;28;20238;-63
2022/05/30 08:00:36;;;;;;;11.33;6.23;;;;;;;10.69;100.00;99316.97;4247317;28;20230;-62
2022/05/30 08:03:04;;;;;;;10.50;6.90;;;;;;;10.68;100.00;99307.34;4233957;28;21224;-62
2022/05/30 08:05:32;;;;;;;12.67;6.37;;;;;;;10.70;100.00;99311.47;4283982;28;20241;-63
2022/05/30 08:07:59;;;;;;;9.90;6.47;;;;;;;10.65;100.00;99307.66;4260071;28;20238;-61
2022/05/30 08:10:26;;;;;;;10.03;6.23;;;;;;;10.72;100.00;99306.81;4261792;28;20306;-62
2022/05/30 08:12:53;;;;;;;12.00;6.87;;;;;;;10.79;100.00;99312.25;4304747;28;20602;-61
2022/05/30 08:15:19;;;;;;;14.03;6.70;;;;;;;10.76;100.00;99307.28;4299984;28;20308;-61
2022/05/30 08:17:46;;;;;;;10.67;5.83;;;;;;;10.73;100.00;99313.78;4265058;28;20240;-62
2022/05/30 08:20:15;;;;;;;9.97;6.20;;;;;;;10.71;100.00;99312.31;4283815;28;20223;-62
2022/05/30 08:22:42;;;;;;;14.43;9.43;;;;;;;10.71;100.00;99317.63;4260596;28;20226;-64
2022/05/30 08:25:14;;;;;;;10.50;6.27;;;;;;;10.84;100.00;99322.38;4258988;28;20250;-66
2022/05/30 08:27:44;;;;;;;9.87;6.33;;;;;;;10.86;100.00;99321.19;4260897;28;20250;-62
2022/05/30 08:30:13;;;;;;;8.93;5.70;;;;;;;10.65;100.00;99316.50;4278645;28;20719;-61
2022/05/30 08:32:41;;;;;;;8.20;5.80;;;;;;;10.54;100.00;99312.38;4246934;28;20305;-62
2022/05/30 08:35:10;;;;;;;9.90;6.00;;;;;;;10.72;100.00;99324.59;4240910;28;20264;-64
2022/05/30 08:37:37;;;;;;;8.60;5.30;;;;;;;10.74;100.00;99317.25;4256441;28;25266;-61
2022/05/30 08:42:54;;;;;;;10.50;5.70;;;;;;;10.69;100.00;99315.13;4248752;28;20419;-61
2022/05/30 08:45:22;;;;;;;9.30;5.57;;;;;;;10.86;100.00;99320.38;4248675;28;21783;-62
2022/05/30 08:48:00;;;;;;;8.43;4.97;;;;;;;10.69;100.00;99319.63;4254662;28;20320;-65
2022/05/30 08:50:35;;;;;;;7.63;4.30;;;;;;;10.80;100.00;99321.91;4243069;28;21379;-60
2022/05/30 08:53:18;;;;;;;8.73;4.50;;;;;;;10.79;100.00;99328.22;4246846;28;21719;-62
2022/05/30 08:55:54;;;;;;;9.00;4.77;;;;;;;10.74;100.00;99317.25;4232203;28;22312;-62
2022/05/30 08:58:49;;;;;;;8.67;5.10;;;;;;;10.92;100.00;99319.69;4239255;28;21353;-58
2022/05/30 09:01:33;;;;;;;5.23;4.13;;;;;;;10.95;100.00;99320.16;4245178;28;20779;-60
2022/05/30 09:04:24;;;;;;;5.87;4.20;;;;;;;11.05;100.00;99319.09;4237753;28;20266;-62
2022/05/30 09:06:56;;;;;;;8.73;5.33;;;;;;;10.83;100.00;99312.75;4250584;28;20625;-62
2022/05/30 09:09:59;;;;;;;8.33;5.00;;;;;;;10.90;100.00;99313.69;4241574;28;21721;-62
2022/05/30 09:12:34;;;;;;;7.10;5.23;;;;;;;11.00;100.00;99322.28;4232577;28;20237;-62
2022/05/30 09:15:09;;;;;;;7.43;5.70;;;;;;;10.90;100.00;99317.19;4248140;28;21223;-59
2022/05/30 09:17:40;;;;;;;8.03;5.80;;;;;;;10.89;100.00;99318.19;4216235;28;20296;-62
2022/05/30 09:20:11;;;;;;;9.37;5.80;;;;;;;10.91;100.00;99318.84;4226541;28;20234;-62
2022/05/30 09:22:38;;;;;;;12.97;6.20;;;;;;;10.94;100.00;99317.69;4248883;28;21487;-62
2022/05/30 09:27:51;;;;;;;8.87;6.20;;;;;;;10.94;100.00;99315.84;4254794;28;20238;-62
2022/05/30 09:30:21;;;;;;;11.60;6.80;;;;;;;11.06;100.00;99321.59;4248724;28;21153;-62
2022/05/30 09:32:58;;;;;;;8.87;6.37;;;;;;;11.14;100.00;99323.38;4235933;28;20240;-63
2022/05/30 09:35:27;;;;;;;8.47;6.80;;;;;;;11.17;100.00;99317.72;4236918;28;20234;-62
2022/05/30 09:38:10;;;;;;;9.53;7.00;;;;;;;11.27;100.00;99323.63;4256441;28;20249;-61
2022/05/30 09:40:48;;;;;;;9.13;6.67;;;;;;;11.31;100.00;99322.28;4242936;28;21059;-62
2022/05/30 09:43:28;;;;;;;9.43;7.03;;;;;;;11.38;100.00;99315.22;4246728;28;20234;-59
2022/05/30 09:45:55;;;;;;;10.27;6.10;;;;;;;11.66;100.00;99314.69;4269803;28;20292;-62
2022/05/30 09:48:22;;;;;;;10.57;6.30;;;;;;;11.82;100.00;99322.53;4253761;28;22971;-60
2022/05/30 09:50:54;;;;;;;10.97;6.20;;;;;;;11.90;100.00;99320.84;4236395;28;20231;-61
2022/05/30 09:53:49;;;;;;;12.37;7.57;;;;;;;11.93;100.00;99321.28;4241348;28;25531;-65
2022/05/30 09:56:18;;;;;;;10.87;6.17;;;;;;;12.15;100.00;99322.25;4250363;28;21117;-63
2022/05/30 09:59:17;;;;;;;11.63;6.07;;;;;;;12.22;100.00;99317.84;4262441;28;21629;-65
2022/05/30 10:01:49;;;;;;;10.03;5.10;;;;;;;12.27;100.00;99319.09;4247294;28;20346;-57
2022/05/30 10:04:38;;;;;;;9.17;4.57;;;;;;;12.44;100.00;99316.09;4233612;28;20247;-69
2022/05/30 10:07:09;;;;;;;9.37;4.90;;;;;;;12.63;100.00;99321.88;4271043;28;22840;-59
2022/05/30 10:09:41;;;;;;;7.77;4.97;;;;;;;12.90;100.00;99320.38;4273450;28;20262;-60
2022/05/30 10:12:08;;;;;;;9.37;4.83;;;;;;;12.96;100.00;99327.63;4248814;28;21595;-61
2022/05/30 10:14:39;;;;;;;7.77;4.03;;;;;;;12.87;100.00;99321.53;4263300;28;20330;-60
2022/05/30 10:17:30;;;;;;;6.97;4.10;;;;;;;12.87;100.00;99320.72;4259832;28;20283;-62
2022/05/30 10:19:59;;;;;;;8.57;5.80;;;;;;;12.93;100.00;99321.84;4242851;28;21143;-61
2022/05/30 10:28:53;;;;;;;5.50;3.47;;;;;;;13.38;98.31;99341.25;4240855;28;23214;-57
2022/05/30 10:31:36;;;;;;;4.93;3.20;;;;;;;13.44;97.59;99338.66;4244432;28;21906;-61
2022/05/30 10:34:30;;;;;;;4.90;2.60;;;;;;;13.47;94.63;99338.25;4242953;28;20243;-60
2022/05/30 10:37:19;;;;;;;4.00;2.63;;;;;;;13.02;91.95;99339.41;4250137;28;21247;-62
2022/05/30 10:40:00;;;;;;;4.60;2.73;;;;;;;13.16;95.29;99345.69;4239723;28;25663;-60
2022/05/30 10:42:51;;;;;;;5.23;3.00;;;;;;;13.15;97.61;99346.72;4248725;28;20219;-60
2022/05/30 10:45:25;;;;;;;6.27;2.87;;;;;;;13.20;98.00;99352.31;4246424;28;20863;-62
2022/05/30 10:47:53;;;;;;;4.17;2.73;;;;;;;12.97;95.59;99350.66;4230101;28;20235;-61
2022/05/30 10:50:21;;;;;;;5.17;3.03;;;;;;;13.13;96.55;99356.78;4243298;28;21756;-61
2022/05/30 10:53:02;;;;;;;4.37;2.37;;;;;;;13.28;94.16;99354.94;4241463;28;22379;-58
2022/05/30 10:55:34;;;;;;;5.70;2.60;;;;;;;13.44;92.14;99369.91;4241807;28;20900;-57
2022/05/30 10:58:02;;;;;;;4.63;2.70;;;;;;;13.56;92.41;99367.56;4243629;28;20236;-59
2022/05/30 11:00:34;;;;;;;2.57;2.17;;;;;;;13.50;90.86;99372.63;4227626;28;20230;-62
2022/05/30 11:03:27;;;;;;;5.23;2.60;;;;;;;13.39;92.27;99369.63;4242880;28;20824;-59
2022/05/30 11:06:25;;;;;;;4.30;2.23;;;;;;;13.40;89.98;99363.28;4247846;28;20698;-58
2022/05/30 11:09:02;;;;;;;3.13;2.33;;;;;;;13.27;91.70;99363.91;4229007;28;20265;-60
2022/05/30 11:11:51;;;;;;;3.63;2.20;;;;;;;13.66;91.18;99362.72;4247332;28;20253;-59
2022/05/30 11:14:37;;;;;;;2.47;2.10;;;;;;;13.79;91.10;99368.19;4246327;28;20230;-59
2022/05/30 11:17:34;;;;;;;5.43;2.00;;;;;;;13.75;89.29;99366.09;4258903;28;20401;-59
2022/05/30 11:20:06;;;;;;;5.20;2.00;;;;;;;14.24;85.98;99363.38;4267503;28;20246;-61
2022/05/30 11:22:37;;;;;;;4.50;2.33;;;;;;;14.34;84.90;99365.72;4269895;28;20230;-58
2022/05/30 11:25:06;;;;;;;2.13;1.60;;;;;;;14.27;82.82;99364.84;4258933;28;20239;-66
2022/05/30 11:27:51;;;;;;;6.37;1.80;;;;;;;13.96;83.98;99362.56;4262904;28;20231;-58
2022/05/30 11:30:40;;;;;;;6.77;1.90;;;;;;;13.70;86.53;99366.66;4273662;28;20703;-62
2022/05/30 11:33:44;;;;;;;3.53;2.10;;;;;;;13.79;84.17;99370.84;4264352;28;20683;-59
2022/05/30 11:36:28;;;;;;;2.93;1.70;;;;;;;13.69;83.35;99367.66;4267431;28;20616;-62
2022/05/30 11:39:04;;;;;;;2.47;1.60;;;;;;;13.73;80.88;99364.41;4254989;28;20284;-62
2022/05/30 11:41:52;;;;;;;2.43;1.90;;;;;;;13.67;82.30;99364.34;4264209;28;20231;-61
2022/05/30 11:44:42;;;;;;;4.27;1.90;;;;;;;13.85;83.46;99362.03;4258899;28;20237;-64
2022/05/30 11:47:30;;;;;;;4.33;2.07;;;;;;;13.71;80.64;99363.78;4267488;28;21155;-62
2022/05/30 11:50:18;;;;;;;4.87;2.30;;;;;;;13.90;83.90;99364.97;4286294;28;20253;-61
2022/05/30 11:53:18;;;;;;;3.40;1.60;;;;;;;14.07;81.00;99373.56;4283583;28;21254;-63
2022/05/30 11:56:13;;;;;;;5.73;2.23;;;;;;;14.09;79.96;99359.97;4270242;28;20454;-62